Flight Track Log - Related Links

Times and Time Zones

All times are in EDT time to prevent confusion due to time zone crossing. See the KAP66 flight status page for this flight to view local times or setup timezone preferences in your user account.

Time Position Orientation Groundspeed Altitude Reporting Facility
EDT Latitude Longitude Course Direction KTS MPH feet Rate Location/Type
Thu 11:51:00 AM 41.3891 -70.3456 302° West  Level Estimated
Thu 11:52:00 AM 41.4084 -70.3864 302° West  Level Estimated
Thu 11:53:00 AM 41.4278 -70.4273 302° West  Level Estimated
Thu 11:54:00 AM 41.4471 -70.4682 302° West  Level Estimated
Thu 11:55:00 AM 41.4664 -70.5091 302° West  Level Estimated
Thu 11:56:00 AM 41.4857 -70.5501 302° West  Level Estimated
Thu 11:57:00 AM 41.5050 -70.5911 302° West  Level Estimated
Thu 11:58:00 AM 41.5243 -70.6321 302° West  Level Estimated
Thu 11:59:00 AM 41.5436 -70.6731 302° West  Level Estimated
Thu 12:00:00 PM 41.5628 -70.7141 302° West  Level Estimated
Thu 12:01:00 PM 41.5821 -70.7552 302° West  Level Estimated
Thu 12:02:00 PM 41.6013 -70.7963 302° West  Level Estimated
Thu 12:03:00 PM 41.6205 -70.8374 302° West  Level Estimated
Thu 12:04:00 PM 41.6397 -70.8786 302° West  Level Estimated
Thu 12:05:00 PM 41.6589 -70.9197 302° West  Level Estimated
Thu 12:06:00 PM 41.6766 -70.9578 302° West  Level Estimated
Thu 12:07:00 PM 41.6766 -70.9578 143° Southeast  Level Estimated
Thu 12:08:00 PM 41.6766 -70.9578 143° Southeast  Level Estimated
Thu 12:09:00 PM 41.6766 -70.9578 143° Southeast  Level Estimated
Thu 12:10:00 PM 41.6766 -70.9578 143° Southeast  Level Estimated
Thu 12:11:00 PM 41.6766 -70.9578 143° Southeast  Level Estimated
Thu 12:12:00 PM 41.6766 -70.9578 143° Southeast  Level Estimated
Thu 12:13:00 PM 41.6766 -70.9578 143° Southeast  Level Estimated
Thu 12:14:00 PM 41.6766 -70.9578 143° Southeast  Level Estimated
Thu 12:15:00 PM 41.6766 -70.9578 143° Southeast  Level Estimated
Thu 12:16:00 PM 41.6766 -70.9578 143° Southeast  Level Estimated
Thu 12:17:00 PM 41.6766 -70.9578 143° Southeast  Level Estimated
Thu 12:18:00 PM 41.6766 -70.9578 143° Southeast  Level Estimated
Thu 12:19:00 PM 41.6766 -70.9578 143° Southeast  Level Estimated
Thu 12:20:00 PM 41.6766 -70.9578 143° Southeast  Level Estimated
Thu 12:21:00 PM 41.6766 -70.9578 143° Southeast  Level Estimated
Thu 12:22:00 PM 41.6766 -70.9578 143° Southeast  Level Estimated

Login

Don't have an account? Register now (free) for customized features, flight alerts, and more!